Oneonta, Alabama
Current Conditions -  °F | °C
As of 8:55 AM on Wednesday 22 Oct 2014 (Local Time) from KGAD Reporting Station
Clear Clear  
Wind Chill: 52°   Ceiling: Unl
Heat Index: 52°   Visibility: 10mi
Dew Point: 41°   Wind: 8mph
Humidity: 67%   Direction: 20°NNE
Pressure: 30.17"   Gusts: NA
Location:  33.95°N, 86.47°W
Report Text: KGAD 221355Z 02007KT 10SM CLR 11/05 A3017 RMK AO1
Loading
Personal Weather Stations






























Interactive Weather Map New forecast layout! Learn more

10-Day Weather Forecast

Advertisements
Track Severe Weather on mobile